createdAt,value
2023-04-09T00:00:36.632Z,17.00
2023-04-09T00:04:28.696Z,17.30
2023-04-09T00:08:00.786Z,17.17
2023-04-09T00:11:32.916Z,17.25
2023-04-09T00:15:05.510Z,16.17
2023-04-09T00:18:37.579Z,16.27
2023-04-09T00:22:09.684Z,17.05
2023-04-09T00:25:41.445Z,17.08
2023-04-09T00:29:13.425Z,16.23
2023-04-09T00:32:46.267Z,17.20
2023-04-09T00:36:18.446Z,15.32
2023-04-09T00:39:50.825Z,15.23
2023-04-09T00:43:22.658Z,13.93
2023-04-09T00:46:55.523Z,15.40
2023-04-09T00:50:27.439Z,16.70
2023-04-09T00:53:59.820Z,14.25
2023-04-09T00:57:32.627Z,16.70
2023-04-09T01:01:04.865Z,15.30
2023-04-09T01:04:38.582Z,14.37
2023-04-09T01:08:22.462Z,15.00
2023-04-09T01:12:46.592Z,14.38
2023-04-09T01:16:22.464Z,15.30
2023-04-09T01:20:05.388Z,14.68
2023-04-09T01:23:52.391Z,14.02
2023-04-09T01:27:29.250Z,14.38
2023-04-09T01:31:06.064Z,15.40
2023-04-09T01:34:39.002Z,14.50
2023-04-09T01:38:12.533Z,15.18
2023-04-09T01:41:44.499Z,14.17
2023-04-09T01:45:17.349Z,14.07
2023-04-09T01:48:49.810Z,15.18
2023-04-09T01:52:22.111Z,14.63
2023-04-09T01:55:56.068Z,15.50
2023-04-09T01:59:28.148Z,14.65
2023-04-09T02:03:21.048Z,14.70
2023-04-09T02:07:01.971Z,16.30
2023-04-09T02:10:36.833Z,17.45
2023-04-09T02:14:11.101Z,13.88
2023-04-09T02:17:43.641Z,13.77
2023-04-09T02:21:15.673Z,14.57
2023-04-09T02:24:47.452Z,16.02
2023-04-09T02:28:19.872Z,14.82
2023-04-09T02:31:53.295Z,15.13
2023-04-09T02:35:25.470Z,15.02
2023-04-09T02:38:57.098Z,13.70
2023-04-09T02:42:29.125Z,14.00
2023-04-09T02:46:00.971Z,14.60
2023-04-09T02:49:32.990Z,14.02
2023-04-09T02:53:04.778Z,13.43
2023-04-09T02:56:36.986Z,14.73
2023-04-09T03:00:09.713Z,15.38
2023-04-09T03:03:43.026Z,14.73
2023-04-09T03:07:14.813Z,14.90
2023-04-09T03:10:46.958Z,14.70
2023-04-09T03:14:18.720Z,15.07
2023-04-09T03:17:50.836Z,14.03
2023-04-09T03:21:22.650Z,15.40
2023-04-09T03:24:54.618Z,15.65
2023-04-09T03:28:26.426Z,15.23
2023-04-09T03:31:58.546Z,14.38
2023-04-09T03:35:30.502Z,14.32
2023-04-09T03:39:02.532Z,14.70
2023-04-09T03:42:35.138Z,15.97
2023-04-09T03:46:13.631Z,14.88
2023-04-09T03:49:45.415Z,13.93
2023-04-09T03:53:17.417Z,14.70
2023-04-09T03:56:49.133Z,15.57
2023-04-09T04:00:22.439Z,16.05
2023-04-09T04:03:54.412Z,14.83
2023-04-09T04:07:26.427Z,13.90
2023-04-09T04:11:04.028Z,14.68
2023-04-09T04:14:36.051Z,16.30
2023-04-09T04:18:08.408Z,15.13
2023-04-09T04:21:40.816Z,17.15
2023-04-09T04:25:12.715Z,17.13
2023-04-09T04:28:44.975Z,16.67
2023-04-09T04:32:16.843Z,18.10
2023-04-09T04:35:48.897Z,17.85
2023-04-09T04:39:21.102Z,18.50
2023-04-09T04:42:53.487Z,20.10
2023-04-09T04:46:25.651Z,17.30
2023-04-09T04:49:58.529Z,16.88
2023-04-09T04:53:30.640Z,16.60
2023-04-09T04:57:03.450Z,17.73
2023-04-09T05:00:35.346Z,17.55
2023-04-09T05:04:07.540Z,16.47
2023-04-09T05:07:39.393Z,16.92
2023-04-09T05:11:12.783Z,16.38
2023-04-09T05:14:45.149Z,15.18
2023-04-09T05:18:17.329Z,15.90
2023-04-09T05:21:49.056Z,16.08
2023-04-09T05:25:21.111Z,15.57
2023-04-09T05:28:53.369Z,16.00
2023-04-09T05:32:25.591Z,16.13
2023-04-09T05:35:57.553Z,14.10
2023-04-09T05:39:30.344Z,15.63
2023-04-09T05:43:02.330Z,15.15
2023-04-09T05:46:34.389Z,16.15
2023-04-09T05:50:06.541Z,16.70
2023-04-09T05:53:38.584Z,13.57
2023-04-09T05:57:10.693Z,15.15
2023-04-09T06:00:42.698Z,15.15
2023-04-09T06:04:14.734Z,13.50
2023-04-09T06:07:47.221Z,13.95
2023-04-09T06:11:18.961Z,15.73
2023-04-09T06:14:51.491Z,14.60
2023-04-09T06:18:23.330Z,14.38
2023-04-09T06:21:55.469Z,13.90
2023-04-09T06:25:27.497Z,13.73
2023-04-09T06:28:59.647Z,13.17
2023-04-09T06:32:35.530Z,13.23
2023-04-09T06:36:12.615Z,14.20
2023-04-09T06:39:57.721Z,12.33
2023-04-09T06:43:32.814Z,13.88
2023-04-09T06:47:04.577Z,12.60
2023-04-09T06:50:36.594Z,14.02
2023-04-09T06:54:08.347Z,12.73
2023-04-09T06:57:40.256Z,12.52
2023-04-09T07:01:12.746Z,13.82
2023-04-09T07:04:44.966Z,14.73
2023-04-09T07:08:17.075Z,12.97
2023-04-09T07:11:49.196Z,13.75
2023-04-09T07:15:20.974Z,12.23
2023-04-09T07:18:52.985Z,13.70
2023-04-09T07:22:27.383Z,12.50
2023-04-09T07:26:04.918Z,12.35
2023-04-09T07:29:37.040Z,13.20
2023-04-09T07:33:08.971Z,12.53
2023-04-09T07:36:42.907Z,13.07
2023-04-09T07:40:14.769Z,13.35
2023-04-09T07:43:47.112Z,12.82
2023-04-09T07:47:19.755Z,11.37
2023-04-09T07:50:52.001Z,11.30
2023-04-09T07:54:27.011Z,9.82
2023-04-09T07:57:58.828Z,11.83
2023-04-09T08:01:31.404Z,10.77
2023-04-09T08:05:03.366Z,9.55
2023-04-09T08:08:35.891Z,9.05
2023-04-09T08:12:07.869Z,9.97
2023-04-09T08:15:40.002Z,9.90
2023-04-09T08:19:12.547Z,9.07
2023-04-09T08:22:45.471Z,8.98
2023-04-09T08:26:17.299Z,9.10
2023-04-09T08:29:49.435Z,8.47
2023-04-09T08:33:26.599Z,8.80
2023-04-09T08:36:58.780Z,10.18
2023-04-09T08:40:35.545Z,8.80
2023-04-09T08:44:07.780Z,6.90
2023-04-09T08:47:42.369Z,7.85
2023-04-09T08:51:18.794Z,7.90
2023-04-09T08:54:51.404Z,7.70
2023-04-09T08:58:23.873Z,6.93
2023-04-09T09:02:16.235Z,8.10
2023-04-09T09:05:48.377Z,8.95
2023-04-09T09:09:20.271Z,9.50
2023-04-09T09:12:52.299Z,7.00
2023-04-09T09:16:24.704Z,8.02
2023-04-09T09:19:56.922Z,7.97
2023-04-09T09:23:36.762Z,6.90
2023-04-09T09:27:08.962Z,7.83
2023-04-09T09:30:41.137Z,8.00
2023-04-09T09:34:12.905Z,7.65
2023-04-09T09:37:45.727Z,8.10
2023-04-09T09:41:18.474Z,9.47
2023-04-09T09:44:51.588Z,8.55
2023-04-09T09:48:25.760Z,8.05
2023-04-09T09:52:03.892Z,8.20
2023-04-09T09:55:43.758Z,8.17
2023-04-09T09:59:25.997Z,7.03
2023-04-09T10:03:04.453Z,7.72
2023-04-09T10:06:37.369Z,8.43
2023-04-09T10:10:09.540Z,8.23
2023-04-09T10:13:46.866Z,8.07
2023-04-09T10:17:19.959Z,9.45
2023-04-09T10:20:59.177Z,9.20
2023-04-09T10:24:34.422Z,7.70
2023-04-09T10:28:16.605Z,8.13
2023-04-09T10:32:03.925Z,7.20
2023-04-09T10:35:38.922Z,8.13
2023-04-09T10:39:14.066Z,7.93
2023-04-09T10:42:47.981Z,7.78
2023-04-09T10:46:36.942Z,8.00
2023-04-09T10:50:25.800Z,7.77
2023-04-09T10:53:58.092Z,7.50
2023-04-09T10:57:30.014Z,7.65
2023-04-09T11:01:31.191Z,7.75
2023-04-09T11:05:12.462Z,7.83
2023-04-09T11:08:44.635Z,7.00
2023-04-09T11:12:17.108Z,6.75
2023-04-09T11:15:48.853Z,7.05
2023-04-09T11:19:21.322Z,7.37
2023-04-09T11:22:54.488Z,7.17
2023-04-09T11:26:36.025Z,6.72
2023-04-09T11:30:08.629Z,6.38
2023-04-09T11:33:40.473Z,6.60
2023-04-09T11:37:17.092Z,6.83
2023-04-09T11:40:49.302Z,7.80
2023-04-09T11:44:22.585Z,7.15
2023-04-09T11:47:55.969Z,7.57
2023-04-09T11:51:30.859Z,6.90
2023-04-09T11:55:04.450Z,7.07
2023-04-09T11:58:36.564Z,7.35
2023-04-09T12:02:08.481Z,7.13
2023-04-09T12:05:50.600Z,7.18
2023-04-09T12:09:23.019Z,7.43
2023-04-09T12:12:55.443Z,7.32
2023-04-09T12:16:27.266Z,7.57
2023-04-09T12:19:59.323Z,7.93
2023-04-09T12:23:33.833Z,7.85
2023-04-09T12:27:06.039Z,7.60
2023-04-09T12:30:37.939Z,7.77
2023-04-09T12:34:10.277Z,7.30
2023-04-09T12:37:43.597Z,7.32
2023-04-09T12:41:16.135Z,6.53
2023-04-09T12:44:48.788Z,6.97
2023-04-09T12:48:20.773Z,6.18
2023-04-09T12:51:52.777Z,6.80
2023-04-09T12:55:24.632Z,7.60
2023-04-09T12:58:56.874Z,7.70
2023-04-09T13:02:29.937Z,7.88
2023-04-09T13:06:02.188Z,8.05
2023-04-09T13:09:35.450Z,7.80
2023-04-09T13:13:12.003Z,7.93
2023-04-09T13:16:44.178Z,7.30
2023-04-09T13:20:16.494Z,7.60
2023-04-09T13:23:48.503Z,7.82
2023-04-09T13:27:20.821Z,7.00
2023-04-09T13:30:53.864Z,7.65
2023-04-09T13:34:25.979Z,6.53
2023-04-09T13:37:58.078Z,7.23
2023-04-09T13:41:32.450Z,7.30
2023-04-09T13:45:05.937Z,7.57
2023-04-09T13:48:40.599Z,6.22
2023-04-09T13:52:12.321Z,7.07
2023-04-09T13:55:45.481Z,6.77
2023-04-09T13:59:17.450Z,6.28
2023-04-09T14:02:49.792Z,7.03
2023-04-09T14:06:21.911Z,6.60
2023-04-09T14:09:53.933Z,6.30
2023-04-09T14:13:25.966Z,6.45
2023-04-09T14:16:58.774Z,5.80
2023-04-09T14:20:30.884Z,6.00
2023-04-09T14:24:03.050Z,6.83
2023-04-09T14:27:39.791Z,6.47
2023-04-09T14:31:11.632Z,6.82
2023-04-09T14:34:43.644Z,5.97
2023-04-09T14:38:16.573Z,7.30
2023-04-09T14:41:51.588Z,6.68
2023-04-09T14:45:23.616Z,6.00
2023-04-09T14:48:55.718Z,6.40
2023-04-09T14:52:30.512Z,6.43
2023-04-09T14:56:06.430Z,5.88
2023-04-09T14:59:38.678Z,6.18
2023-04-09T15:03:10.894Z,6.40
2023-04-09T15:06:43.199Z,6.67
2023-04-09T15:10:15.478Z,6.53
2023-04-09T15:13:47.616Z,6.65
2023-04-09T15:17:19.681Z,6.93
2023-04-09T15:20:51.700Z,5.80
2023-04-09T15:24:23.581Z,6.15
2023-04-09T15:27:55.643Z,6.15
2023-04-09T15:31:27.574Z,6.53
2023-04-09T15:35:00.817Z,5.33
2023-04-09T15:38:33.050Z,6.40
2023-04-09T15:42:05.324Z,6.43
2023-04-09T15:45:38.367Z,8.00
2023-04-09T15:49:12.379Z,7.07
2023-04-09T15:52:44.394Z,6.53
2023-04-09T15:56:16.197Z,5.75
2023-04-09T15:59:51.995Z,5.93
2023-04-09T16:03:24.076Z,6.47
2023-04-09T16:06:56.810Z,6.43
2023-04-09T16:10:28.914Z,6.38
2023-04-09T16:14:01.388Z,7.17
2023-04-09T16:17:40.220Z,6.90
2023-04-09T16:21:13.185Z,7.07
2023-04-09T16:24:44.909Z,6.53
2023-04-09T16:28:19.700Z,6.47
2023-04-09T16:31:53.334Z,6.93
2023-04-09T16:35:25.862Z,7.22
2023-04-09T16:38:58.300Z,7.25
2023-04-09T16:42:30.630Z,8.10
2023-04-09T16:46:02.599Z,7.00
2023-04-09T16:49:34.693Z,6.80
2023-04-09T16:53:08.287Z,6.40
2023-04-09T16:56:42.458Z,6.23
2023-04-09T17:00:17.473Z,6.88
2023-04-09T17:03:49.784Z,8.02
2023-04-09T17:07:22.000Z,8.15
2023-04-09T17:11:01.752Z,8.10
2023-04-09T17:14:34.524Z,7.50
2023-04-09T17:18:06.622Z,8.27
2023-04-09T17:21:38.607Z,7.47
2023-04-09T17:25:10.819Z,7.70
2023-04-09T17:28:42.928Z,8.30
2023-04-09T17:32:14.657Z,9.02
2023-04-09T17:35:46.733Z,7.60
2023-04-09T17:39:18.621Z,10.03
2023-04-09T17:42:50.850Z,12.93
2023-04-09T17:46:23.845Z,8.88
2023-04-09T17:49:55.826Z,8.60
2023-04-09T17:53:28.016Z,8.93
2023-04-09T17:56:59.859Z,9.20
2023-04-09T18:00:34.409Z,9.88
2023-04-09T18:04:06.384Z,9.60
2023-04-09T18:07:38.639Z,9.33
2023-04-09T18:11:13.185Z,10.95
2023-04-09T18:14:46.873Z,10.40
2023-04-09T18:18:18.925Z,9.97
2023-04-09T18:21:51.485Z,9.45
2023-04-09T18:25:23.548Z,11.25
2023-04-09T18:28:57.848Z,11.45
2023-04-09T18:32:32.333Z,10.90
2023-04-09T18:36:04.579Z,11.85
2023-04-09T18:39:37.777Z,12.38
2023-04-09T18:43:12.984Z,12.93
2023-04-09T18:46:45.012Z,13.85
2023-04-09T18:50:18.309Z,15.48
2023-04-09T18:53:53.072Z,27.88
2023-04-09T18:57:24.878Z,17.10
2023-04-09T19:00:57.259Z,14.15
2023-04-09T19:04:32.822Z,13.82
2023-04-09T19:08:08.295Z,13.60
2023-04-09T19:11:40.387Z,15.27
2023-04-09T19:15:12.485Z,15.13
2023-04-09T19:18:44.928Z,15.60
2023-04-09T19:22:16.722Z,14.93
2023-04-09T19:25:53.632Z,14.05
2023-04-09T19:29:25.602Z,14.20
2023-04-09T19:32:57.701Z,13.47
2023-04-09T19:36:31.408Z,13.35
2023-04-09T19:40:06.335Z,14.48
2023-04-09T19:43:39.388Z,13.23
2023-04-09T19:47:11.503Z,12.88
2023-04-09T19:50:45.326Z,13.27
2023-04-09T19:54:17.408Z,13.47
2023-04-09T19:57:49.420Z,13.13
2023-04-09T20:01:21.398Z,12.40
2023-04-09T20:04:54.514Z,12.95
2023-04-09T20:08:27.395Z,12.73
2023-04-09T20:12:04.506Z,13.43
2023-04-09T20:15:36.492Z,14.73
2023-04-09T20:19:08.792Z,15.63
2023-04-09T20:22:43.253Z,15.35
2023-04-09T20:26:17.297Z,13.18
2023-04-09T20:29:49.505Z,12.93
2023-04-09T20:33:21.747Z,13.73
2023-04-09T20:36:54.285Z,13.15
2023-04-09T20:40:26.398Z,12.55
2023-04-09T20:43:58.091Z,13.10
2023-04-09T20:47:30.463Z,12.15
2023-04-09T20:51:03.937Z,12.95
2023-04-09T20:54:36.409Z,11.37
2023-04-09T20:58:08.217Z,12.57
2023-04-09T21:01:40.453Z,12.32
2023-04-09T21:05:22.562Z,14.13
2023-04-09T21:08:56.970Z,13.15
2023-04-09T21:12:32.645Z,17.38
2023-04-09T21:16:04.957Z,21.63
2023-04-09T21:19:37.162Z,19.67
2023-04-09T21:23:09.248Z,19.20
2023-04-09T21:26:50.917Z,15.02
2023-04-09T21:30:23.477Z,14.97
2023-04-09T21:33:55.294Z,17.45
2023-04-09T21:37:28.919Z,16.15
2023-04-09T21:41:01.714Z,19.40
2023-04-09T21:44:33.755Z,20.63
2023-04-09T21:48:06.591Z,17.30
2023-04-09T21:51:41.331Z,16.98
2023-04-09T21:55:14.171Z,17.27
2023-04-09T21:58:45.970Z,21.08
2023-04-09T22:02:18.489Z,28.02
2023-04-09T22:05:50.417Z,20.13
2023-04-09T22:09:22.453Z,21.80
2023-04-09T22:12:54.789Z,20.25
2023-04-09T22:16:27.108Z,19.63
2023-04-09T22:19:59.120Z,18.45
2023-04-09T22:23:31.340Z,19.67
2023-04-09T22:27:03.091Z,19.27
2023-04-09T22:30:35.449Z,17.57
2023-04-09T22:34:20.057Z,17.33
2023-04-09T22:37:53.322Z,13.52
2023-04-09T22:41:25.144Z,13.00
2023-04-09T22:44:57.406Z,13.65
2023-04-09T22:48:30.418Z,12.45
2023-04-09T22:52:02.570Z,12.30
2023-04-09T22:55:34.631Z,12.52
2023-04-09T22:59:06.762Z,13.45
2023-04-09T23:02:38.616Z,13.50
2023-04-09T23:06:10.827Z,17.13
2023-04-09T23:09:42.726Z,17.38
2023-04-09T23:13:18.048Z,23.45
2023-04-09T23:16:49.714Z,24.57
2023-04-09T23:20:22.121Z,22.70
2023-04-09T23:23:54.161Z,22.33
2023-04-09T23:27:28.658Z,22.73
2023-04-09T23:31:00.770Z,24.48
2023-04-09T23:34:32.869Z,56.70
2023-04-09T23:38:04.559Z,39.05
2023-04-09T23:41:37.700Z,32.00
2023-04-09T23:45:10.000Z,28.25
2023-04-09T23:48:42.045Z,30.42
2023-04-09T23:52:14.281Z,25.10
2023-04-09T23:55:47.829Z,22.73
2023-04-09T23:59:20.003Z,24.90
